createdAt,value
2022-11-24T00:16:12.419Z,0.76
2022-11-24T00:56:12.336Z,0.69
2022-11-24T01:16:12.365Z,0.68
2022-11-24T01:36:12.344Z,0.8
2022-11-24T01:56:12.241Z,0.79
2022-11-24T02:16:19.259Z,0.76
2022-11-24T02:36:12.228Z,0.67
2022-11-24T02:56:12.161Z,0.53
2022-11-24T03:16:12.194Z,0.29
2022-11-24T03:36:19.143Z,0.19
2022-11-24T03:56:12.078Z,-0.01
2022-11-24T04:16:12.161Z,-0.08
2022-11-24T04:36:12.015Z,-0.11
2022-11-24T04:56:19.011Z,-0.13
2022-11-24T05:16:12.121Z,-0.16
2022-11-24T05:36:11.953Z,-0.26
2022-11-24T05:56:12.053Z,-0.35
2022-11-24T06:16:11.977Z,-0.44
2022-11-24T06:36:11.877Z,-0.43
2022-11-24T06:56:16.014Z,-0.42
2022-11-24T07:16:11.916Z,-0.17
2022-11-24T07:36:11.854Z,-0.04
2022-11-24T07:56:11.788Z,0.2
2022-11-24T08:16:11.914Z,0.65
2022-11-24T08:36:11.740Z,0.81
2022-11-24T08:56:11.743Z,1.11
2022-11-24T09:16:11.716Z,1.57
2022-11-24T09:36:11.699Z,1.79
2022-11-24T09:56:11.694Z,2.09
2022-11-24T10:16:11.723Z,2.5
2022-11-24T10:36:11.571Z,2.92
2022-11-24T10:56:11.577Z,3.26
2022-11-24T11:16:11.644Z,3.39
2022-11-24T11:36:11.628Z,3.65
2022-11-24T11:56:11.499Z,4.42
2022-11-24T12:16:11.523Z,5.4
2022-11-24T12:36:11.417Z,5.64
2022-11-24T12:56:11.369Z,5.34
2022-11-24T13:36:11.295Z,5.37
2022-11-24T13:56:11.373Z,5.35
2022-11-24T14:16:11.257Z,5.27
2022-11-24T14:36:11.203Z,5.07
2022-11-24T14:56:11.165Z,4.34
2022-11-24T15:16:11.186Z,4.24
2022-11-24T15:36:11.124Z,4.08
2022-11-24T15:56:11.075Z,3.92
2022-11-24T16:16:11.113Z,3.86
2022-11-24T16:36:11.044Z,3.77
2022-11-24T16:56:10.983Z,3.65
2022-11-24T17:16:11.096Z,3.23
2022-11-24T17:56:15.924Z,2.88
2022-11-24T18:16:10.953Z,2.16
2022-11-24T18:36:10.870Z,1.54
2022-11-24T18:56:11.032Z,1.42
2022-11-24T19:16:10.836Z,1.57
2022-11-24T19:36:10.803Z,0.89
2022-11-24T19:56:10.757Z,0.89
2022-11-24T20:16:10.780Z,0.65
2022-11-24T20:36:10.676Z,1.03
2022-11-24T20:56:10.777Z,0.51
2022-11-24T21:16:10.706Z,0.82
2022-11-24T21:36:10.629Z,0.94
2022-11-24T22:16:10.888Z,0.73
2022-11-24T22:36:10.540Z,1
2022-11-24T22:56:10.518Z,1.28
2022-11-24T23:16:10.619Z,1.47
2022-11-24T23:36:10.515Z,1.62
2022-11-24T23:56:10.437Z,1.46
